Time;durP1;ratioP1;P1;durP2;ratioP2;P2;SDS_P1;SDS_P2;PMS_P1;PMS_P2;Temp;Humidity;BMP_temperature;BMP_pressure;BME280_temperature;BME280_humidity;BME280_pressure;Samples;Min_cycle;Max_cycle;Signal;HPM_P1;HPM_P2
2023/09/07 00:00:52;;;;;;;;;;;;;;;26.18;49.42;101262.56;4222072;27;19931;-61
2023/09/07 00:02:54;;;;;;;;;;;;;;;26.18;49.46;101262.56;4179302;27;20432;-61
2023/09/07 00:04:56;;;;;;;;;;;;;;;26.16;49.48;101251.88;4251771;27;19923;-61
2023/09/07 00:06:59;;;;;;;;;;;;;;;26.15;49.10;101261.00;4178250;28;19929;-61
2023/09/07 00:09:01;;;;;;;;;;;;;;;26.15;49.43;101255.59;4204686;27;20011;-61
2023/09/07 00:11:07;;;;;;;;;;;;;;;26.14;49.33;101253.91;4226443;27;19925;-61
2023/09/07 00:13:09;;;;;;;;;;;;;;;26.13;49.11;101252.19;4188676;28;20266;-63
2023/09/07 00:15:11;;;;;;;;;;;;;;;26.12;49.26;101254.03;4200836;27;20151;-61
2023/09/07 00:17:13;;;;;;;;;;;;;;;26.11;49.21;101240.69;4173552;28;19962;-60
2023/09/07 00:19:15;;;;;;;;;;;;;;;26.09;49.46;101246.25;4212722;27;20421;-61
2023/09/07 00:21:16;;;;;;;;;;;;;;;26.10;49.41;101252.47;4217468;27;20319;-61
2023/09/07 00:23:19;;;;;;;;;;;;;;;26.08;49.29;101241.00;4194695;28;19981;-62
2023/09/07 00:25:21;;;;;;;;;;;;;;;26.08;49.35;101244.53;4247195;27;20026;-60
2023/09/07 00:27:23;;;;;;;;;;;;;;;26.07;49.27;101237.44;4197785;27;20286;-60
2023/09/07 00:29:24;;;;;;;;;;;;;;;26.05;49.05;101231.28;4224730;27;19923;-60
2023/09/07 00:31:26;;;;;;;;;;;;;;;26.06;49.47;101234.84;4215474;27;19995;-61
2023/09/07 00:33:28;;;;;;;;;;;;;;;26.04;49.51;101232.31;4282151;27;19977;-61
2023/09/07 00:35:30;;;;;;;;;;;;;;;26.04;49.22;101229.63;4222404;27;19960;-61
2023/09/07 00:37:32;;;;;;;;;;;;;;;26.03;49.31;101236.00;4263351;27;19945;-61
2023/09/07 00:39:34;;;;;;;;;;;;;;;26.03;49.25;101233.31;4273552;27;20355;-61
2023/09/07 00:41:35;;;;;;;;;;;;;;;26.02;49.57;101237.00;4211921;27;19923;-61
2023/09/07 00:43:39;;;;;;;;;;;;;;;26.02;49.39;101246.94;4281850;27;19967;-61
2023/09/07 00:45:41;;;;;;;;;;;;;;;26.01;49.32;101242.53;4230641;27;19925;-61
2023/09/07 00:47:43;;;;;;;;;;;;;;;26.01;49.71;101242.53;4254683;27;19923;-61
2023/09/07 00:49:45;;;;;;;;;;;;;;;25.98;49.63;101241.81;4272788;27;19973;-60
2023/09/07 00:51:47;;;;;;;;;;;;;;;25.98;49.54;101247.19;4210842;27;19926;-61
2023/09/07 00:53:49;;;;;;;;;;;;;;;25.97;49.67;101242.81;4282061;27;20026;-61
2023/09/07 00:55:51;;;;;;;;;;;;;;;25.97;49.53;101248.19;4239738;27;19960;-61
2023/09/07 00:57:54;;;;;;;;;;;;;;;25.96;49.53;101243.78;4244963;27;20376;-61
2023/09/07 00:59:56;;;;;;;;;;;;;;;25.96;49.49;101248.34;4274368;27;19923;-61
2023/09/07 01:01:57;;;;;;;;;;;;;;;25.95;49.90;101239.38;4211560;27;19978;-61
2023/09/07 01:03:59;;;;;;;;;;;;;;;25.94;49.72;101235.03;4281702;27;19922;-61
2023/09/07 01:06:04;;;;;;;;;;;;;;;25.94;49.82;101235.03;4235506;27;19925;-60
2023/09/07 01:08:11;;;;;;;;;;;;;;;25.93;49.92;101235.13;4244719;27;20030;-60
2023/09/07 01:10:13;;;;;;;;;;;;;;;25.92;49.63;101228.91;4276896;27;19929;-60
2023/09/07 01:12:15;;;;;;;;;;;;;;;25.91;49.62;101229.91;4208226;27;19925;-61
2023/09/07 01:14:17;;;;;;;;;;;;;;;25.91;49.85;101229.06;4218853;27;20396;-61
2023/09/07 01:16:20;;;;;;;;;;;;;;;25.90;49.92;101233.59;4209325;27;19932;-61
2023/09/07 01:18:22;;;;;;;;;;;;;;;25.89;49.63;101229.19;4241388;27;20318;-61
2023/09/07 01:20:27;;;;;;;;;;;;;;;25.88;49.89;101227.47;4202076;27;20023;-61
2023/09/07 01:22:28;;;;;;;;;;;;;;;25.87;49.75;101231.19;4203326;27;19932;-61
2023/09/07 01:24:30;;;;;;;;;;;;;;;25.86;49.70;101226.78;4281382;27;19929;-61
2023/09/07 01:26:32;;;;;;;;;;;;;;;25.85;49.94;101227.78;4257128;27;19927;-61
2023/09/07 01:28:34;;;;;;;;;;;;;;;25.83;49.59;101227.94;4200401;28;19928;-61
2023/09/07 01:30:38;;;;;;;;;;;;;;;25.83;49.66;101229.75;4193156;28;19977;-61
2023/09/07 01:32:40;;;;;;;;;;;;;;;25.82;49.73;101228.91;4236073;27;20005;-61
2023/09/07 01:34:41;;;;;;;;;;;;;;;25.82;49.68;101228.06;4182871;27;19979;-61
2023/09/07 01:36:43;;;;;;;;;;;;;;;25.81;49.76;101226.38;4190756;27;20019;-61
2023/09/07 01:38:44;;;;;;;;;;;;;;;25.80;49.93;101221.97;4240970;27;19929;-61
2023/09/07 01:40:46;;;;;;;;;;;;;;;25.79;50.13;101223.81;4177394;28;19925;-61
2023/09/07 01:42:48;;;;;;;;;;;;;;;25.79;49.88;101221.09;4238653;27;19926;-62
2023/09/07 01:44:49;;;;;;;;;;;;;;;25.78;49.87;101222.09;4193541;27;19967;-61
2023/09/07 01:46:51;;;;;;;;;;;;;;;25.78;49.99;101216.72;4184767;27;20351;-61
2023/09/07 01:48:53;;;;;;;;;;;;;;;25.76;50.05;101221.41;4247817;27;19929;-61
2023/09/07 01:50:55;;;;;;;;;;;;;;;25.76;50.07;101220.53;4177272;28;19960;-61
2023/09/07 01:52:58;;;;;;;;;;;;;;;25.77;50.20;101222.25;4229229;27;19926;-61
2023/09/07 01:55:00;;;;;;;;;;;;;;;25.75;50.10;101227.78;4201892;27;19960;-61
2023/09/07 01:57:02;;;;;;;;;;;;;;;25.75;49.79;101217.00;4185082;27;19925;-61
2023/09/07 01:59:03;;;;;;;;;;;;;;;25.74;50.28;101219.84;4247470;27;19931;-61
2023/09/07 02:01:05;;;;;;;;;;;;;;;25.73;49.97;101224.38;4177371;28;19970;-61
2023/09/07 02:03:07;;;;;;;;;;;;;;;25.71;49.88;101218.25;4218991;27;20018;-61
2023/09/07 02:05:09;;;;;;;;;;;;;;;25.71;49.99;101222.81;4212086;27;20347;-61
2023/09/07 02:07:11;;;;;;;;;;;;;;;25.70;50.16;101221.97;4198511;27;20099;-61
2023/09/07 02:09:13;;;;;;;;;;;;;;;25.69;50.06;101222.97;4198932;27;19964;-61
2023/09/07 02:11:14;;;;;;;;;;;;;;;25.68;49.91;101222.09;4262627;27;20296;-62
2023/09/07 02:13:16;;;;;;;;;;;;;;;25.67;50.08;101219.56;4241246;27;19960;-60
2023/09/07 02:15:18;;;;;;;;;;;;;;;25.67;50.01;101225.78;4197686;28;19973;-61
2023/09/07 02:17:20;;;;;;;;;;;;;;;25.66;50.18;101229.50;4192899;28;19936;-61
2023/09/07 02:19:23;;;;;;;;;;;;;;;25.66;50.03;101217.84;4210306;27;19928;-61
2023/09/07 02:21:25;;;;;;;;;;;;;;;25.65;50.38;101227.78;4190524;28;20347;-61
2023/09/07 02:23:26;;;;;;;;;;;;;;;25.65;50.36;101222.41;4212105;27;19927;-61
2023/09/07 02:25:30;;;;;;;;;;;;;;;25.64;50.03;101220.69;4225142;27;20378;-62
2023/09/07 02:27:32;;;;;;;;;;;;;;;25.63;50.44;101213.59;4252308;27;19976;-61
2023/09/07 02:29:33;;;;;;;;;;;;;;;25.63;50.26;101226.22;4198504;27;20343;-61
2023/09/07 02:31:35;;;;;;;;;;;;;;;25.62;50.20;101219.13;4276434;27;19926;-61
2023/09/07 02:33:37;;;;;;;;;;;;;;;25.62;50.07;101214.59;4266600;27;20027;-61
2023/09/07 02:35:39;;;;;;;;;;;;;;;25.60;50.14;101221.97;4217014;27;20404;-61
2023/09/07 02:37:40;;;;;;;;;;;;;;;25.60;50.11;101213.03;4262256;27;20295;-61
2023/09/07 02:39:42;;;;;;;;;;;;;;;25.59;50.19;101214.88;4218450;27;19969;-61
2023/09/07 02:41:45;;;;;;;;;;;;;;;25.59;50.15;101222.97;4267279;27;19923;-61
2023/09/07 02:43:47;;;;;;;;;;;;;;;25.58;50.30;101220.38;4275221;27;20009;-61
2023/09/07 02:45:50;;;;;;;;;;;;;;;25.58;50.33;101223.94;4205621;27;20649;-60
2023/09/07 02:47:52;;;;;;;;;;;;;;;25.56;50.02;101225.09;4284093;27;19962;-61
2023/09/07 02:49:53;;;;;;;;;;;;;;;25.56;50.14;101219.69;4229638;27;19977;-61
2023/09/07 02:51:56;;;;;;;;;;;;;;;25.55;50.18;101226.91;4260384;27;19927;-61
2023/09/07 02:53:58;;;;;;;;;;;;;;;25.54;50.52;101211.75;4274848;27;20037;-61
2023/09/07 02:56:04;;;;;;;;;;;;;;;25.54;50.49;101222.50;4212365;27;20299;-61
2023/09/07 02:58:05;;;;;;;;;;;;;;;25.52;50.39;101219.97;4265172;27;19927;-61
2023/09/07 03:00:09;;;;;;;;;;;;;;;25.52;50.43;101219.97;4235515;27;20008;-61
2023/09/07 03:02:10;;;;;;;;;;;;;;;25.51;50.22;101212.03;4255511;27;20370;-61
2023/09/07 03:04:12;;;;;;;;;;;;;;;25.50;50.60;101213.84;4274779;27;19923;-61
2023/09/07 03:06:14;;;;;;;;;;;;;;;25.50;50.57;101202.25;4212056;27;19930;-62
2023/09/07 03:08:17;;;;;;;;;;;;;;;25.49;50.44;101217.56;4283336;27;19957;-61
2023/09/07 03:10:18;;;;;;;;;;;;;;;25.48;50.65;101207.78;4243324;27;19983;-61
2023/09/07 03:12:20;;;;;;;;;;;;;;;25.48;50.31;101212.31;4245617;27;19980;-61
2023/09/07 03:14:22;;;;;;;;;;;;;;;25.46;50.49;101212.44;4217395;27;19964;-61
2023/09/07 03:16:24;;;;;;;;;;;;;;;25.47;50.53;101205.22;4207681;27;20454;-61
2023/09/07 03:18:25;;;;;;;;;;;;;;;25.46;50.27;101208.91;4195707;28;20320;-61
2023/09/07 03:20:27;;;;;;;;;;;;;;;25.44;50.61;101203.66;4209007;27;20317;-60
2023/09/07 03:22:30;;;;;;;;;;;;;;;25.44;50.54;101205.50;4242824;27;19923;-60
2023/09/07 03:24:32;;;;;;;;;;;;;;;25.44;50.64;101209.03;4283541;27;20029;-61
2023/09/07 03:26:34;;;;;;;;;;;;;;;25.43;50.47;101209.19;4204299;27;20386;-61
2023/09/07 03:28:36;;;;;;;;;;;;;;;25.42;50.35;101211.03;4210153;28;19928;-61
2023/09/07 03:30:38;;;;;;;;;;;;;;;25.43;50.37;101209.19;4223391;27;19965;-61
2023/09/07 03:32:39;;;;;;;;;;;;;;;25.42;50.22;101204.78;4225993;27;19922;-61
2023/09/07 03:34:41;;;;;;;;;;;;;;;25.40;50.48;101204.09;4283482;27;20390;-61
2023/09/07 03:36:43;;;;;;;;;;;;;;;25.39;50.32;101211.31;4206156;27;20059;-61
2023/09/07 03:38:44;;;;;;;;;;;;;;;25.40;50.32;101212.19;4275235;27;19937;-61
2023/09/07 03:40:46;;;;;;;;;;;;;;;25.38;50.59;101208.75;4273479;27;20375;-61
2023/09/07 03:42:48;;;;;;;;;;;;;;;25.38;50.67;101198.00;4215443;27;20074;-61
2023/09/07 03:44:49;;;;;;;;;;;;;;;25.36;50.59;101204.34;4283305;27;20355;-61
2023/09/07 03:46:51;;;;;;;;;;;;;;;25.36;50.53;101203.50;4224480;27;19960;-61
2023/09/07 03:48:53;;;;;;;;;;;;;;;25.36;50.65;101203.50;4262568;27;19979;-61
2023/09/07 03:50:55;;;;;;;;;;;;;;;25.35;50.39;101209.88;4273858;27;20343;-60
2023/09/07 03:52:56;;;;;;;;;;;;;;;25.34;50.41;101208.16;4211799;27;19926;-60
2023/09/07 03:55:00;;;;;;;;;;;;;;;25.33;50.41;101215.38;4282978;27;19922;-60
2023/09/07 03:57:02;;;;;;;;;;;;;;;25.34;50.45;101210.84;4222531;27;19956;-60
2023/09/07 03:59:04;;;;;;;;;;;;;;;25.31;50.33;101209.28;4258795;27;19952;-61
2023/09/07 04:01:05;;;;;;;;;;;;;;;25.31;50.65;101208.41;4273967;27;19923;-61
2023/09/07 04:03:07;;;;;;;;;;;;;;;25.31;50.79;101211.13;4211869;27;20368;-61
2023/09/07 04:05:10;;;;;;;;;;;;;;;25.29;50.50;101213.94;4282335;27;20315;-60
2023/09/07 04:07:12;;;;;;;;;;;;;;;25.29;50.45;101211.25;4241943;27;20023;-60
2023/09/07 04:09:14;;;;;;;;;;;;;;;25.29;50.36;101215.81;4244600;27;19923;-60
2023/09/07 04:11:16;;;;;;;;;;;;;;;25.28;50.58;101211.41;4277771;27;19923;-60
2023/09/07 04:13:17;;;;;;;;;;;;;;;25.27;50.65;101215.09;4213895;27;19981;-61
2023/09/07 04:15:19;;;;;;;;;;;;;;;25.28;50.64;101211.41;4209014;28;19924;-61
2023/09/07 04:17:20;;;;;;;;;;;;;;;25.19;50.79;101199.66;4213953;27;20357;-61
2023/09/07 04:19:22;;;;;;;;;;;;;;;25.26;50.67;101208.84;4205260;27;19947;-61
2023/09/07 04:21:23;;;;;;;;;;;;;;;25.25;50.49;101208.97;4191581;28;19924;-60
2023/09/07 04:23:25;;;;;;;;;;;;;;;25.24;50.45;101213.53;4181916;27;19925;-61
2023/09/07 04:25:27;;;;;;;;;;;;;;;25.23;50.66;101209.13;4280914;27;19962;-61
2023/09/07 04:27:28;;;;;;;;;;;;;;;25.23;50.68;101210.97;4254484;27;19924;-61
2023/09/07 04:29:30;;;;;;;;;;;;;;;25.22;50.55;101206.59;4237908;27;19985;-60
2023/09/07 04:31:32;;;;;;;;;;;;;;;25.20;50.63;101209.38;4178491;28;19937;-61
2023/09/07 04:33:33;;;;;;;;;;;;;;;25.19;50.68;101208.56;4243417;27;20018;-61
2023/09/07 04:35:35;;;;;;;;;;;;;;;25.19;50.46;101207.72;4189924;27;20027;-61
2023/09/07 04:37:37;;;;;;;;;;;;;;;25.17;50.42;101210.53;4185451;27;19929;-61
2023/09/07 04:39:40;;;;;;;;;;;;;;;25.17;50.64;101212.38;4183626;28;20011;-61
2023/09/07 04:41:41;;;;;;;;;;;;;;;25.07;50.78;101189.97;4194508;28;19924;-61
2023/09/07 04:43:43;;;;;;;;;;;;;;;25.16;50.52;101202.59;4236925;27;19953;-61
2023/09/07 04:45:47;;;;;;;;;;;;;;;25.16;50.47;101208.81;4199447;27;19925;-62
2023/09/07 04:47:52;;;;;;;;;;;;;;;25.15;50.81;101206.28;4186295;27;19998;-60
2023/09/07 04:49:53;;;;;;;;;;;;;;;25.14;50.75;101205.44;4248553;27;19956;-60
2023/09/07 04:51:57;;;;;;;;;;;;;;;25.14;50.51;101212.63;4178026;28;19954;-61
2023/09/07 04:53:58;;;;;;;;;;;;;;;25.13;50.64;101210.94;4228835;27;20376;-61
2023/09/07 04:56:00;;;;;;;;;;;;;;;25.12;50.48;101206.56;4204149;27;19970;-61
2023/09/07 04:58:02;;;;;;;;;;;;;;;25.12;50.64;101215.47;4186429;27;19951;-62
2023/09/07 05:00:05;;;;;;;;;;;;;;;25.11;50.77;101215.63;4248160;27;19928;-61
2023/09/07 05:02:06;;;;;;;;;;;;;;;25.10;50.37;101213.91;4177867;28;19932;-61
2023/09/07 05:04:08;;;;;;;;;;;;;;;25.07;50.35;101214.19;4219121;27;20051;-61
2023/09/07 05:06:11;;;;;;;;;;;;;;;25.06;50.79;101210.66;4205665;27;20392;-61
2023/09/07 05:08:12;;;;;;;;;;;;;;;25.04;50.71;101218.88;4200067;27;20227;-62
2023/09/07 05:10:14;;;;;;;;;;;;;;;25.04;50.52;101226.06;4204941;27;19933;-61
2023/09/07 05:12:18;;;;;;;;;;;;;;;25.03;50.54;101227.06;4281804;27;20009;-61
2023/09/07 05:14:20;;;;;;;;;;;;;;;25.04;50.60;101231.47;4219369;27;19936;-61
2023/09/07 05:16:21;;;;;;;;;;;;;;;25.04;50.81;101231.47;4213014;27;19924;-61
2023/09/07 05:18:23;;;;;;;;;;;;;;;25.05;50.49;101238.53;4194340;27;19995;-62
2023/09/07 05:20:25;;;;;;;;;;;;;;;25.04;50.87;101234.16;4234707;27;19924;-61
2023/09/07 05:22:27;;;;;;;;;;;;;;;25.02;50.61;101225.38;4194232;28;19977;-61
2023/09/07 05:24:29;;;;;;;;;;;;;;;25.01;50.85;101235.28;4209173;27;19964;-61
2023/09/07 05:26:30;;;;;;;;;;;;;;;25.01;50.61;101232.59;4230452;27;20005;-61
2023/09/07 05:28:32;;;;;;;;;;;;;;;25.01;50.45;101229.06;4207730;28;19953;-61
2023/09/07 05:30:34;;;;;;;;;;;;;;;24.99;50.59;101237.25;4205615;27;19982;-61
2023/09/07 05:32:36;;;;;;;;;;;;;;;24.99;50.59;101237.25;4274812;27;19929;-61
2023/09/07 05:34:39;;;;;;;;;;;;;;;24.99;50.75;101236.41;4267945;27;20325;-61
2023/09/07 05:36:40;;;;;;;;;;;;;;;24.98;50.57;101245.47;4216945;27;19994;-61
2023/09/07 05:38:42;;;;;;;;;;;;;;;24.97;50.64;101241.94;4281455;27;19930;-61
2023/09/07 05:40:44;;;;;;;;;;;;;;;24.96;50.59;101242.03;4219824;27;19931;-61
2023/09/07 05:42:45;;;;;;;;;;;;;;;24.96;50.57;101233.97;4265397;27;19949;-61
2023/09/07 05:44:47;;;;;;;;;;;;;;;24.96;50.85;101244.72;4272508;27;19954;-60
2023/09/07 05:46:48;;;;;;;;;;;;;;;24.95;50.59;101240.38;4209934;27;20006;-61
2023/09/07 05:48:50;;;;;;;;;;;;;;;24.94;50.80;101238.66;4281574;27;20002;-61
2023/09/07 05:50:52;;;;;;;;;;;;;;;24.93;50.57;101247.72;4230287;27;19929;-61
2023/09/07 05:52:54;;;;;;;;;;;;;;;24.83;50.75;101228.84;4254744;27;20414;-61
2023/09/07 05:54:55;;;;;;;;;;;;;;;24.91;50.49;101238.91;4272648;27;20356;-61
2023/09/07 05:56:57;;;;;;;;;;;;;;;24.89;50.69;101239.06;4210041;27;19929;-61
2023/09/07 05:58:59;;;;;;;;;;;;;;;24.89;50.63;101239.06;4281301;27;19927;-62
2023/09/07 06:01:00;;;;;;;;;;;;;;;24.88;50.74;101238.19;4240591;27;19925;-61
2023/09/07 06:03:03;;;;;;;;;;;;;;;24.88;50.84;101240.03;4243993;27;20313;-61
2023/09/07 06:05:05;;;;;;;;;;;;;;;24.86;50.64;101248.25;4273954;27;19926;-61
2023/09/07 06:07:08;;;;;;;;;;;;;;;24.86;50.50;101253.63;4198245;27;20285;-61
2023/09/07 06:09:10;;;;;;;;;;;;;;;24.85;50.54;101249.25;4281301;27;19926;-61
2023/09/07 06:11:11;;;;;;;;;;;;;;;24.84;51.02;101250.22;4248959;27;19978;-61
2023/09/07 06:13:13;;;;;;;;;;;;;;;24.82;50.65;101252.19;4210182;27;19924;-62
2023/09/07 06:15:14;;;;;;;;;;;;;;;24.82;50.87;101256.72;4210381;28;19924;-62
2023/09/07 06:17:16;;;;;;;;;;;;;;;24.83;50.59;101261.13;4199183;27;19928;-61
2023/09/07 06:19:18;;;;;;;;;;;;;;;24.74;50.75;101251.16;4165923;28;19928;-62
2023/09/07 06:21:19;;;;;;;;;;;;;;;24.81;50.85;101257.72;4215455;27;19922;-62
2023/09/07 06:23:21;;;;;;;;;;;;;;;24.80;50.60;101264.94;4227244;27;20351;-62
2023/09/07 06:25:23;;;;;;;;;;;;;;;24.80;50.51;101264.94;4284685;27;19961;-62
2023/09/07 06:27:24;;;;;;;;;;;;;;;24.80;50.57;101264.94;4225846;27;20011;-62
2023/09/07 06:29:26;;;;;;;;;;;;;;;24.79;50.82;101256.97;4198091;28;20359;-62
2023/09/07 06:31:28;;;;;;;;;;;;;;;24.78;51.15;101256.16;4200410;27;19956;-62
2023/09/07 06:33:30;;;;;;;;;;;;;;;24.77;50.83;101258.97;4246563;27;19932;-61
2023/09/07 06:35:32;;;;;;;;;;;;;;;24.77;50.47;101262.50;4180123;28;20024;-62
2023/09/07 06:37:33;;;;;;;;;;;;;;;24.76;50.78;101263.47;4236771;27;19922;-62
2023/09/07 06:39:35;;;;;;;;;;;;;;;24.75;50.51;101258.25;4199487;27;20007;-62
2023/09/07 06:41:37;;;;;;;;;;;;;;;24.76;50.46;101250.03;4188413;27;19929;-62
2023/09/07 06:43:38;;;;;;;;;;;;;;;24.75;50.85;101256.41;4250046;27;19939;-62
2023/09/07 06:45:40;;;;;;;;;;;;;;;24.74;50.51;101252.03;4178515;28;20379;-61
2023/09/07 06:47:41;;;;;;;;;;;;;;;24.73;50.71;101255.69;4225266;27;19923;-61
2023/09/07 06:49:43;;;;;;;;;;;;;;;24.73;50.60;101261.09;4210425;27;19944;-62
2023/09/07 06:51:44;;;;;;;;;;;;;;;24.72;50.59;101260.22;4188242;27;19925;-62
2023/09/07 06:53:47;;;;;;;;;;;;;;;24.72;50.81;101262.91;4250043;27;20009;-61
2023/09/07 06:55:59;;;;;;;;;;;;;;;24.72;50.51;101264.75;4179552;28;19929;-61
2023/09/07 06:58:01;;;;;;;;;;;;;;;24.72;50.47;101262.06;4223891;27;19923;-61
2023/09/07 07:00:05;;;;;;;;;;;;;;;24.71;50.91;101261.19;4210907;27;19925;-62
2023/09/07 07:02:07;;;;;;;;;;;;;;;24.71;50.79;101263.03;4187537;27;19924;-62
2023/09/07 07:04:09;;;;;;;;;;;;;;;24.71;50.44;101268.44;4249913;27;19926;-62
2023/09/07 07:06:11;;;;;;;;;;;;;;;24.70;50.81;101270.28;4179619;28;19978;-61
2023/09/07 07:08:13;;;;;;;;;;;;;;;24.71;50.69;101268.44;4216845;27;19923;-61
2023/09/07 07:10:14;;;;;;;;;;;;;;;24.69;50.45;101270.38;4219308;27;19925;-61
2023/09/07 07:12:16;;;;;;;;;;;;;;;24.70;50.79;101272.09;4182583;27;19925;-61
2023/09/07 07:14:17;;;;;;;;;;;;;;;24.69;50.51;101268.56;4204320;27;19952;-61
2023/09/07 07:16:19;;;;;;;;;;;;;;;24.70;50.80;101266.72;4195152;28;19944;-60
2023/09/07 07:18:21;;;;;;;;;;;;;;;24.69;50.33;101265.00;4213260;27;19925;-61
2023/09/07 07:20:22;;;;;;;;;;;;;;;24.69;50.37;101262.31;4192915;28;19924;-61
2023/09/07 07:22:24;;;;;;;;;;;;;;;24.68;50.65;101257.91;4195941;28;19976;-61
2023/09/07 07:24:26;;;;;;;;;;;;;;;24.68;50.59;101261.47;4199427;27;19944;-61
2023/09/07 07:26:27;;;;;;;;;;;;;;;24.69;50.46;101259.63;4280326;27;19923;-61
2023/09/07 07:28:29;;;;;;;;;;;;;;;24.68;50.71;101261.47;4231659;27;19926;-61
2023/09/07 07:30:35;;;;;;;;;;;;;;;24.69;50.30;101260.50;4221812;27;20040;-61
2023/09/07 07:32:37;;;;;;;;;;;;;;;24.70;50.64;101256.81;4283621;27;19922;-61
2023/09/07 07:34:39;;;;;;;;;;;;;;;24.71;50.32;101255.81;4214869;27;19928;-61
2023/09/07 07:36:40;;;;;;;;;;;;;;;24.72;50.35;101259.38;4272414;27;19927;-62
2023/09/07 07:38:42;;;;;;;;;;;;;;;24.74;50.49;101259.22;4273328;27;19923;-61
2023/09/07 07:40:46;;;;;;;;;;;;;;;24.74;50.46;101265.47;4215237;27;19923;-61
2023/09/07 07:42:48;;;;;;;;;;;;;;;24.76;50.45;101259.97;4282740;27;19992;-61
2023/09/07 07:44:49;;;;;;;;;;;;;;;24.76;50.01;101258.09;4224324;27;20196;-61
2023/09/07 07:46:51;;;;;;;;;;;;;;;24.77;50.21;101259.81;4263571;27;19923;-62
2023/09/07 07:48:52;;;;;;;;;;;;;;;24.79;50.34;101262.38;4273683;27;20039;-61
2023/09/07 07:50:54;;;;;;;;;;;;;;;24.80;50.26;101256.00;4212677;27;19930;-62
2023/09/07 07:52:56;;;;;;;;;;;;;;;24.80;50.15;101262.25;4282636;27;19930;-61
2023/09/07 07:54:58;;;;;;;;;;;;;;;24.79;50.08;101257.84;4234284;27;20003;-61
2023/09/07 07:56:59;;;;;;;;;;;;;;;24.81;50.38;101268.47;4252052;27;20080;-61
2023/09/07 07:59:01;;;;;;;;;;;;;;;24.82;49.93;101257.56;4273869;27;20382;-60
2023/09/07 08:01:12;;;;;;;;;;;;;;;24.82;50.13;101254.88;4212450;27;20429;-61
2023/09/07 08:03:14;;;;;;;;;;;;;;;24.82;50.25;101262.94;4282977;27;19923;-61
2023/09/07 08:05:17;;;;;;;;;;;;;;;24.83;49.89;101261.13;4255414;27;20319;-61
2023/09/07 08:07:18;;;;;;;;;;;;;;;24.82;49.92;101257.56;4208545;27;20015;-62
2023/09/07 08:09:20;;;;;;;;;;;;;;;24.84;50.06;101260.97;4187284;27;19929;-61
2023/09/07 08:11:22;;;;;;;;;;;;;;;24.84;50.27;101260.97;4248864;27;20017;-61
2023/09/07 08:13:24;;;;;;;;;;;;;;;24.85;49.92;101261.84;4192931;28;19928;-61
2023/09/07 08:15:26;;;;;;;;;;;;;;;24.86;50.11;101263.53;4218106;27;20391;-61
2023/09/07 08:17:28;;;;;;;;;;;;;;;24.87;49.89;101266.09;4192219;28;20358;-61
2023/09/07 08:19:29;;;;;;;;;;;;;;;24.86;50.14;101256.31;4200895;27;19940;-61
2023/09/07 08:21:31;;;;;;;;;;;;;;;24.88;50.16;101270.47;4206992;27;20397;-61
2023/09/07 08:23:33;;;;;;;;;;;;;;;24.88;49.91;101272.31;4282424;27;19923;-61
2023/09/07 08:25:34;;;;;;;;;;;;;;;24.89;50.13;101265.97;4255564;27;19936;-60
2023/09/07 08:27:36;;;;;;;;;;;;;;;24.90;50.07;101262.28;4198812;27;19924;-60
2023/09/07 08:29:37;;;;;;;;;;;;;;;24.90;49.83;101264.13;4211829;28;19964;-60
2023/09/07 08:31:40;;;;;;;;;;;;;;;24.91;49.97;101263.13;4205538;27;19950;-61
2023/09/07 08:33:42;;;;;;;;;;;;;;;24.92;50.01;101265.69;4279191;27;19956;-61
2023/09/07 08:35:44;;;;;;;;;;;;;;;24.91;49.86;101261.31;4265695;27;20391;-60
2023/09/07 08:37:46;;;;;;;;;;;;;;;24.91;50.02;101258.63;4220818;27;20388;-61
2023/09/07 08:39:47;;;;;;;;;;;;;;;24.92;49.56;101252.22;4281987;27;20299;-61
2023/09/07 08:41:49;;;;;;;;;;;;;;;24.93;49.66;101248.56;4217820;27;19925;-61
2023/09/07 08:44:02;;;;;;;;;;;;;;;24.92;49.96;101262.97;4278436;27;19973;-61
2023/09/07 08:46:14;;;;;;;;;;;;;;;24.93;49.95;101261.16;4265675;27;19935;-60
2023/09/07 08:48:17;;;;;;;;;;;;;;;24.93;49.82;101251.25;4228821;27;19931;-61
2023/09/07 08:50:19;;;;;;;;;;;;;;;24.94;49.72;101250.25;4282064;27;19930;-62
2023/09/07 08:52:21;;;;;;;;;;;;;;;24.95;49.73;101246.59;4207734;27;19942;-61
2023/09/07 08:54:23;;;;;;;;;;;;;;;24.97;49.65;101250.00;4279167;27;20026;-60
2023/09/07 08:56:25;;;;;;;;;;;;;;;24.98;49.86;101242.78;4264571;27;20349;-61
2023/09/07 08:58:27;;;;;;;;;;;;;;;24.97;49.93;101236.53;4219965;27;19927;-60
2023/09/07 09:00:30;;;;;;;;;;;;;;;24.97;49.68;101239.25;4281941;27;19969;-61
2023/09/07 09:02:32;;;;;;;;;;;;;;;24.98;49.66;101242.78;4216037;27;19933;-61
2023/09/07 09:04:34;;;;;;;;;;;;;;;24.98;49.96;101234.69;4270146;27;19923;-61
2023/09/07 09:06:35;;;;;;;;;;;;;;;24.98;49.74;101230.19;4273121;27;20025;-61
2023/09/07 09:08:44;;;;;;;;;;;;;;;24.99;49.79;101234.53;4247107;27;19925;-60
2023/09/07 09:10:48;;;;;;;;;;;;;;;25.00;49.81;101240.81;4177531;28;20011;-60
2023/09/07 09:12:50;;;;;;;;;;;;;;;25.00;49.64;101232.72;4197135;27;19924;-61
2023/09/07 09:14:52;;;;;;;;;;;;;;;24.91;49.86;101229.03;4206676;28;19968;-61
2023/09/07 09:16:55;;;;;;;;;;;;;;;25.00;49.58;101238.13;4200602;27;19957;-60
2023/09/07 09:18:57;;;;;;;;;;;;;;;24.99;49.85;101236.41;4253128;27;20075;-61
2023/09/07 09:20:59;;;;;;;;;;;;;;;25.00;49.84;101238.13;4193278;28;19972;-64
2023/09/07 09:23:04;;;;;;;;;;;;;;;25.00;49.88;101232.72;4220471;27;19936;-64
2023/09/07 09:25:07;;;;;;;;;;;;;;;25.01;49.77;101235.28;4185699;27;20293;-68
2023/09/07 09:27:10;;;;;;;;;;;;;;;25.02;49.63;101231.59;4191790;27;19929;-66
2023/09/07 09:29:12;;;;;;;;;;;;;;;25.04;49.62;101231.47;4216544;27;19932;-65
2023/09/07 09:31:14;;;;;;;;;;;;;;;25.04;49.70;101229.63;4199196;28;19924;-67
2023/09/07 09:33:19;;;;;;;;;;;;;;;25.05;49.90;101225.09;4210581;27;19964;-65
2023/09/07 09:35:23;;;;;;;;;;;;;;;25.07;49.52;101228.50;4195063;28;19960;-64
2023/09/07 09:37:24;;;;;;;;;;;;;;;25.10;49.53;101236.28;4203346;27;19925;-66
2023/09/07 09:39:26;;;;;;;;;;;;;;;25.11;49.94;101237.16;4197303;27;19924;-66
2023/09/07 09:41:30;;;;;;;;;;;;;;;25.12;49.66;101231.63;4193947;28;19932;-64
2023/09/07 09:43:31;;;;;;;;;;;;;;;25.15;49.74;101231.38;4212847;27;20023;-65
2023/09/07 09:45:35;;;;;;;;;;;;;;;25.18;49.75;101232.94;4254337;27;19923;-65
2023/09/07 09:47:38;;;;;;;;;;;;;;;25.16;49.26;101232.19;4270755;27;20037;-64
2023/09/07 09:49:40;;;;;;;;;;;;;;;25.14;49.49;101234.16;4210913;27;19947;-65
2023/09/07 09:51:42;;;;;;;;;;;;;;;25.17;48.97;101237.44;4280600;27;19923;-66
2023/09/07 09:53:45;;;;;;;;;;;;;;;25.16;48.98;101226.81;4241409;27;20259;-62
2023/09/07 09:55:47;;;;;;;;;;;;;;;25.17;50.40;101232.06;4243818;27;19940;-62
2023/09/07 09:57:50;;;;;;;;;;;;;;;25.18;49.05;101232.94;4274686;27;20396;-63
2023/09/07 09:59:52;;;;;;;;;;;;;;;25.17;48.85;101231.22;4220394;27;19928;-62
2023/09/07 10:01:54;;;;;;;;;;;;;;;25.20;49.23;101236.31;4194022;28;19924;-60
2023/09/07 10:03:56;;;;;;;;;;;;;;;25.20;48.73;101234.50;4210612;27;20298;-64
2023/09/07 10:06:08;;;;;;;;;;;;;;;25.26;48.17;101237.59;4234639;27;19967;-64
2023/09/07 10:08:12;;;;;;;;;;;;;;;25.29;48.07;101232.81;4275020;27;19954;-62
2023/09/07 10:10:14;;;;;;;;;;;;;;;25.34;47.69;101227.84;4210241;27;19932;-65
2023/09/07 10:12:16;;;;;;;;;;;;;;;25.39;47.42;101232.84;4281312;27;19922;-64
2023/09/07 10:14:18;;;;;;;;;;;;;;;25.34;47.63;101235.09;4220110;27;19976;-65
2023/09/07 10:16:20;;;;;;;;;;;;;;;25.36;47.47;101228.56;4213689;27;19933;-64
2023/09/07 10:18:32;;;;;;;;;;;;;;;25.46;47.50;101235.84;4192332;27;19929;-64
2023/09/07 10:20:47;;;;;;;;;;;;;;;25.48;47.60;101228.47;4224958;27;19925;-63
2023/09/07 10:22:48;;;;;;;;;;;;;;;25.65;47.01;101226.91;4193208;28;19931;-63
2023/09/07 10:24:57;;;;;;;;;;;;;;;25.74;46.68;101225.25;4224404;27;19923;-64
2023/09/07 10:27:00;;;;;;;;;;;;;;;25.72;47.06;101224.53;4192959;27;19986;-63